Tyler, TX (75703)

11:37 AM CDT en Agosto 28, 2016 (GMT -0500)
Cambridge Bend | | Change Station

Alt 636 ft 32.26 °N, 95.29 °W | Updated 1 minute ago

Light Rain
Lluvia débil
79.9 ° F
Sensación térmica 84 ° F
N
1.7
Viento Variable Viento desde ENE

Hoy
Alta -- | Baja -- ° F
--% Posibilidad de precipitaciones
Ayer
Alta -- | Baja -- ° F
Precip. -- pul
Presión 30.06 pul
Visibilidad 10.0 Millas
Nubes Baja 5000 ft
Muy nublado 7000 ft
Nublado 9000 ft
Índice de calor 84 ° F
Punto de rocío 74 ° F
Humedad 81%
Precipitaciones 0.54 pul
Espesor de la nieve No disponible.
6:54 AM 7:49 PM
Creciente menguante, 14% visible
METAR KTYR 281553Z 03007KT 10SM -RA FEW050 BKN070 OVC090 25/23 A3009 RMK AO2 RAB1455 SLP180 P0008 T02500228
Presión 30.06 pul
Visibilidad 10.0 Millas
Nubes Baja 5000 ft
Muy nublado 7000 ft
Nublado 9000 ft
Índice de calor 84 ° F
Punto de rocío 74 ° F
Humedad 81%
Precipitaciones 0.54 pul
Espesor de la nieve No disponible.
6:54 AM 7:49 PM
Creciente menguante, 14% visible
METAR KTYR 281553Z 03007KT 10SM -RA FEW050 BKN070 OVC090 25/23 A3009 RMK AO2 RAB1455 SLP180 P0008 T02500228

10-Day Weather Forecast

Almanac

Astronomía

Aug. 28, 2016 Salida Puesta
Hora real
Crepúsculo civil
Crepúsculo náutico
Crepúsculo astronómico
Luna
Horas de luz
Horas de luz
Tomorrow will be .
, % of the Moon is Illuminated

Extremos de hoy

Máximos del estado Bajos del estado

Community

WunderPhotos

Upload Photos

1,935,621 ¡fotos cargadas!

WunderBlog® & News

Nearby

Calidad del aire

  Calidad del aire Índice AQ Contaminante
Not available.

Grosos de nieve

Estación Profundido Altura

Actividad de terremotos

Ciudad Distance Mag. Tiempo y dato
Magnitud mínima muestra es 2,5.

Temperaturas de aguas costeras

Lugar Temperatura

Stations

Estaciones meteorológicas cercanas

Ubicación de la estación Temp. Vientos helados Punto de rocío Humedad Viento Precip. Alt Actualizado Tipo
                   

Watches & Warnings

There are currently no watches in effect.